sensor_id;sensor_type;location;lat;lon;timestamp;P1;durP1;ratioP1;P2;durP2;ratioP2
7477;SDS011;3780;42.424;25.636;2024-01-11T00:00:03;6.70;;;4.70;;
7477;SDS011;3780;42.424;25.636;2024-01-11T00:02:29;7.57;;;4.95;;
7477;SDS011;3780;42.424;25.636;2024-01-11T00:04:54;8.15;;;5.10;;
7477;SDS011;3780;42.424;25.636;2024-01-11T00:07:19;12.60;;;6.07;;
7477;SDS011;3780;42.424;25.636;2024-01-11T00:09:45;10.57;;;5.95;;
7477;SDS011;3780;42.424;25.636;2024-01-11T00:12:10;10.25;;;6.78;;
7477;SDS011;3780;42.424;25.636;2024-01-11T00:14:35;8.65;;;5.85;;
7477;SDS011;3780;42.424;25.636;2024-01-11T00:17:01;9.85;;;6.50;;
7477;SDS011;3780;42.424;25.636;2024-01-11T00:19:26;9.55;;;5.72;;
7477;SDS011;3780;42.424;25.636;2024-01-11T00:21:51;13.43;;;9.35;;
7477;SDS011;3780;42.424;25.636;2024-01-11T00:24:17;12.85;;;7.95;;
7477;SDS011;3780;42.424;25.636;2024-01-11T00:26:42;9.65;;;6.80;;
7477;SDS011;3780;42.424;25.636;2024-01-11T00:29:07;10.98;;;6.78;;
7477;SDS011;3780;42.424;25.636;2024-01-11T00:31:32;9.73;;;5.38;;
7477;SDS011;3780;42.424;25.636;2024-01-11T00:33:58;9.07;;;5.95;;
7477;SDS011;3780;42.424;25.636;2024-01-11T00:36:23;9.27;;;5.97;;
7477;SDS011;3780;42.424;25.636;2024-01-11T00:38:48;24.13;;;15.38;;
7477;SDS011;3780;42.424;25.636;2024-01-11T00:41:14;33.83;;;22.83;;
7477;SDS011;3780;42.424;25.636;2024-01-11T00:43:39;24.77;;;17.05;;
7477;SDS011;3780;42.424;25.636;2024-01-11T00:46:04;19.27;;;12.48;;
7477;SDS011;3780;42.424;25.636;2024-01-11T00:48:30;21.73;;;14.40;;
7477;SDS011;3780;42.424;25.636;2024-01-11T00:50:55;13.38;;;8.32;;
7477;SDS011;3780;42.424;25.636;2024-01-11T00:53:20;10.48;;;6.78;;
7477;SDS011;3780;42.424;25.636;2024-01-11T00:55:45;10.25;;;6.88;;
7477;SDS011;3780;42.424;25.636;2024-01-11T00:58:11;15.82;;;9.80;;
7477;SDS011;3780;42.424;25.636;2024-01-11T01:00:36;11.05;;;7.32;;
7477;SDS011;3780;42.424;25.636;2024-01-11T01:03:01;10.80;;;6.90;;
7477;SDS011;3780;42.424;25.636;2024-01-11T01:05:27;13.20;;;8.63;;
7477;SDS011;3780;42.424;25.636;2024-01-11T01:07:52;31.17;;;19.40;;
7477;SDS011;3780;42.424;25.636;2024-01-11T01:10:18;24.08;;;15.85;;
7477;SDS011;3780;42.424;25.636;2024-01-11T01:12:43;14.93;;;9.63;;
7477;SDS011;3780;42.424;25.636;2024-01-11T01:15:08;14.75;;;10.27;;
7477;SDS011;3780;42.424;25.636;2024-01-11T01:17:33;11.57;;;6.75;;
7477;SDS011;3780;42.424;25.636;2024-01-11T01:19:59;10.05;;;6.75;;
7477;SDS011;3780;42.424;25.636;2024-01-11T01:22:24;13.80;;;9.10;;
7477;SDS011;3780;42.424;25.636;2024-01-11T01:24:49;13.15;;;9.30;;
7477;SDS011;3780;42.424;25.636;2024-01-11T01:27:16;9.48;;;6.28;;
7477;SDS011;3780;42.424;25.636;2024-01-11T01:29:41;9.35;;;6.53;;
7477;SDS011;3780;42.424;25.636;2024-01-11T01:32:06;9.85;;;5.68;;
7477;SDS011;3780;42.424;25.636;2024-01-11T01:34:31;8.25;;;5.78;;
7477;SDS011;3780;42.424;25.636;2024-01-11T01:36:57;9.68;;;6.13;;
7477;SDS011;3780;42.424;25.636;2024-01-11T01:39:22;8.90;;;6.40;;
7477;SDS011;3780;42.424;25.636;2024-01-11T01:41:47;7.85;;;5.57;;
7477;SDS011;3780;42.424;25.636;2024-01-11T01:44:12;9.52;;;6.00;;
7477;SDS011;3780;42.424;25.636;2024-01-11T01:46:38;7.63;;;5.00;;
7477;SDS011;3780;42.424;25.636;2024-01-11T01:49:03;8.65;;;4.82;;
7477;SDS011;3780;42.424;25.636;2024-01-11T01:51:29;9.30;;;4.75;;
7477;SDS011;3780;42.424;25.636;2024-01-11T01:53:54;9.57;;;4.88;;
7477;SDS011;3780;42.424;25.636;2024-01-11T01:56:21;9.32;;;4.53;;
7477;SDS011;3780;42.424;25.636;2024-01-11T01:58:47;6.93;;;4.40;;
7477;SDS011;3780;42.424;25.636;2024-01-11T02:01:13;6.82;;;4.43;;
7477;SDS011;3780;42.424;25.636;2024-01-11T02:03:39;7.10;;;4.38;;
7477;SDS011;3780;42.424;25.636;2024-01-11T02:06:05;5.53;;;3.72;;
7477;SDS011;3780;42.424;25.636;2024-01-11T02:08:30;10.68;;;6.05;;
7477;SDS011;3780;42.424;25.636;2024-01-11T02:10:57;9.70;;;7.18;;
7477;SDS011;3780;42.424;25.636;2024-01-11T02:13:23;11.68;;;8.45;;
7477;SDS011;3780;42.424;25.636;2024-01-11T02:15:48;10.18;;;7.82;;
7477;SDS011;3780;42.424;25.636;2024-01-11T02:18:13;11.60;;;7.32;;
7477;SDS011;3780;42.424;25.636;2024-01-11T02:20:38;9.48;;;6.70;;
7477;SDS011;3780;42.424;25.636;2024-01-11T02:23:05;9.20;;;6.20;;
7477;SDS011;3780;42.424;25.636;2024-01-11T02:25:31;9.02;;;5.72;;
7477;SDS011;3780;42.424;25.636;2024-01-11T02:27:56;8.77;;;6.18;;
7477;SDS011;3780;42.424;25.636;2024-01-11T02:30:22;11.98;;;6.72;;
7477;SDS011;3780;42.424;25.636;2024-01-11T02:32:48;11.35;;;5.95;;
7477;SDS011;3780;42.424;25.636;2024-01-11T02:35:14;14.55;;;5.78;;
7477;SDS011;3780;42.424;25.636;2024-01-11T02:37:39;8.38;;;5.82;;
7477;SDS011;3780;42.424;25.636;2024-01-11T02:40:06;9.32;;;5.45;;
7477;SDS011;3780;42.424;25.636;2024-01-11T02:42:32;8.15;;;5.68;;
7477;SDS011;3780;42.424;25.636;2024-01-11T02:44:57;13.18;;;6.75;;
7477;SDS011;3780;42.424;25.636;2024-01-11T02:47:22;16.83;;;10.38;;
7477;SDS011;3780;42.424;25.636;2024-01-11T02:49:48;22.08;;;13.57;;
7477;SDS011;3780;42.424;25.636;2024-01-11T02:52:13;21.48;;;13.45;;
7477;SDS011;3780;42.424;25.636;2024-01-11T02:54:38;16.67;;;8.63;;
7477;SDS011;3780;42.424;25.636;2024-01-11T02:57:04;13.77;;;7.03;;
7477;SDS011;3780;42.424;25.636;2024-01-11T02:59:29;13.52;;;7.10;;
7477;SDS011;3780;42.424;25.636;2024-01-11T03:01:54;13.60;;;7.75;;
7477;SDS011;3780;42.424;25.636;2024-01-11T03:04:20;30.05;;;19.70;;
7477;SDS011;3780;42.424;25.636;2024-01-11T03:06:45;11.27;;;8.00;;
7477;SDS011;3780;42.424;25.636;2024-01-11T03:09:10;11.27;;;6.85;;
7477;SDS011;3780;42.424;25.636;2024-01-11T03:11:36;10.82;;;6.93;;
7477;SDS011;3780;42.424;25.636;2024-01-11T03:14:02;12.32;;;7.72;;
7477;SDS011;3780;42.424;25.636;2024-01-11T03:16:28;20.58;;;7.80;;
7477;SDS011;3780;42.424;25.636;2024-01-11T03:18:53;21.52;;;7.90;;
7477;SDS011;3780;42.424;25.636;2024-01-11T03:21:18;24.25;;;9.63;;
7477;SDS011;3780;42.424;25.636;2024-01-11T03:23:44;10.80;;;7.25;;
7477;SDS011;3780;42.424;25.636;2024-01-11T03:26:19;10.60;;;6.68;;
7477;SDS011;3780;42.424;25.636;2024-01-11T03:28:44;16.70;;;8.15;;
7477;SDS011;3780;42.424;25.636;2024-01-11T03:31:09;13.48;;;7.30;;
7477;SDS011;3780;42.424;25.636;2024-01-11T03:33:35;15.63;;;7.68;;
7477;SDS011;3780;42.424;25.636;2024-01-11T03:36:06;23.38;;;9.45;;
7477;SDS011;3780;42.424;25.636;2024-01-11T03:38:31;15.27;;;7.35;;
7477;SDS011;3780;42.424;25.636;2024-01-11T03:40:56;25.95;;;9.32;;
7477;SDS011;3780;42.424;25.636;2024-01-11T03:43:22;17.65;;;8.90;;
7477;SDS011;3780;42.424;25.636;2024-01-11T03:45:47;18.90;;;9.50;;
7477;SDS011;3780;42.424;25.636;2024-01-11T03:48:12;19.10;;;9.38;;
7477;SDS011;3780;42.424;25.636;2024-01-11T03:50:37;20.42;;;10.73;;
7477;SDS011;3780;42.424;25.636;2024-01-11T03:53:03;20.35;;;10.18;;
7477;SDS011;3780;42.424;25.636;2024-01-11T03:55:29;23.05;;;11.70;;
7477;SDS011;3780;42.424;25.636;2024-01-11T03:57:54;23.98;;;10.95;;
7477;SDS011;3780;42.424;25.636;2024-01-11T04:00:19;17.15;;;9.63;;
7477;SDS011;3780;42.424;25.636;2024-01-11T04:02:45;20.02;;;10.25;;
7477;SDS011;3780;42.424;25.636;2024-01-11T04:05:10;25.95;;;10.10;;
7477;SDS011;3780;42.424;25.636;2024-01-11T04:07:35;21.60;;;9.80;;
7477;SDS011;3780;42.424;25.636;2024-01-11T04:10:01;19.98;;;9.80;;
7477;SDS011;3780;42.424;25.636;2024-01-11T04:12:26;17.05;;;9.05;;
7477;SDS011;3780;42.424;25.636;2024-01-11T04:14:51;15.43;;;8.57;;
7477;SDS011;3780;42.424;25.636;2024-01-11T04:17:16;21.80;;;8.68;;
7477;SDS011;3780;42.424;25.636;2024-01-11T04:19:42;16.42;;;8.80;;
7477;SDS011;3780;42.424;25.636;2024-01-11T04:22:07;17.50;;;8.98;;
7477;SDS011;3780;42.424;25.636;2024-01-11T04:24:32;24.05;;;9.63;;
7477;SDS011;3780;42.424;25.636;2024-01-11T04:26:58;21.17;;;9.80;;
7477;SDS011;3780;42.424;25.636;2024-01-11T04:29:23;27.48;;;9.85;;
7477;SDS011;3780;42.424;25.636;2024-01-11T04:31:49;23.50;;;9.43;;
7477;SDS011;3780;42.424;25.636;2024-01-11T04:34:14;23.10;;;12.45;;
7477;SDS011;3780;42.424;25.636;2024-01-11T04:36:39;18.80;;;9.63;;
7477;SDS011;3780;42.424;25.636;2024-01-11T04:39:05;26.35;;;9.90;;
7477;SDS011;3780;42.424;25.636;2024-01-11T04:41:31;18.08;;;10.35;;
7477;SDS011;3780;42.424;25.636;2024-01-11T04:43:56;21.48;;;10.05;;
7477;SDS011;3780;42.424;25.636;2024-01-11T04:46:22;21.27;;;11.23;;
7477;SDS011;3780;42.424;25.636;2024-01-11T04:48:48;22.50;;;12.05;;
7477;SDS011;3780;42.424;25.636;2024-01-11T04:51:16;25.15;;;12.07;;
7477;SDS011;3780;42.424;25.636;2024-01-11T04:53:42;19.00;;;10.98;;
7477;SDS011;3780;42.424;25.636;2024-01-11T04:56:08;23.17;;;12.25;;
7477;SDS011;3780;42.424;25.636;2024-01-11T04:58:34;26.50;;;11.68;;
7477;SDS011;3780;42.424;25.636;2024-01-11T05:00:59;26.35;;;11.55;;
7477;SDS011;3780;42.424;25.636;2024-01-11T05:03:25;24.92;;;12.10;;
7477;SDS011;3780;42.424;25.636;2024-01-11T05:05:50;23.08;;;11.40;;
7477;SDS011;3780;42.424;25.636;2024-01-11T05:08:16;23.52;;;12.25;;
7477;SDS011;3780;42.424;25.636;2024-01-11T05:10:41;27.30;;;12.70;;
7477;SDS011;3780;42.424;25.636;2024-01-11T05:13:06;27.60;;;14.27;;
7477;SDS011;3780;42.424;25.636;2024-01-11T05:15:31;29.60;;;15.05;;
7477;SDS011;3780;42.424;25.636;2024-01-11T05:17:57;26.00;;;14.57;;
7477;SDS011;3780;42.424;25.636;2024-01-11T05:20:23;28.23;;;15.70;;
7477;SDS011;3780;42.424;25.636;2024-01-11T05:22:48;27.42;;;15.88;;
7477;SDS011;3780;42.424;25.636;2024-01-11T05:25:13;29.08;;;15.98;;
7477;SDS011;3780;42.424;25.636;2024-01-11T05:27:39;34.17;;;15.93;;
7477;SDS011;3780;42.424;25.636;2024-01-11T05:30:04;32.35;;;16.33;;
7477;SDS011;3780;42.424;25.636;2024-01-11T05:32:30;24.17;;;13.65;;
7477;SDS011;3780;42.424;25.636;2024-01-11T05:34:55;23.42;;;13.00;;
7477;SDS011;3780;42.424;25.636;2024-01-11T05:37:20;21.95;;;13.10;;
7477;SDS011;3780;42.424;25.636;2024-01-11T05:39:46;25.55;;;16.25;;
7477;SDS011;3780;42.424;25.636;2024-01-11T05:42:11;21.42;;;13.63;;
7477;SDS011;3780;42.424;25.636;2024-01-11T05:44:36;28.70;;;14.32;;
7477;SDS011;3780;42.424;25.636;2024-01-11T05:47:02;33.85;;;15.23;;
7477;SDS011;3780;42.424;25.636;2024-01-11T05:49:27;30.23;;;15.02;;
7477;SDS011;3780;42.424;25.636;2024-01-11T05:51:52;23.40;;;14.15;;
7477;SDS011;3780;42.424;25.636;2024-01-11T05:54:18;31.67;;;15.70;;
7477;SDS011;3780;42.424;25.636;2024-01-11T05:56:43;28.95;;;16.38;;
7477;SDS011;3780;42.424;25.636;2024-01-11T05:59:09;25.30;;;13.93;;
7477;SDS011;3780;42.424;25.636;2024-01-11T06:01:39;23.08;;;12.27;;
7477;SDS011;3780;42.424;25.636;2024-01-11T06:04:05;24.90;;;12.75;;
7477;SDS011;3780;42.424;25.636;2024-01-11T06:06:30;27.98;;;14.32;;
7477;SDS011;3780;42.424;25.636;2024-01-11T06:08:56;24.83;;;12.70;;
7477;SDS011;3780;42.424;25.636;2024-01-11T06:11:21;33.05;;;16.33;;
7477;SDS011;3780;42.424;25.636;2024-01-11T06:13:46;41.22;;;22.92;;
7477;SDS011;3780;42.424;25.636;2024-01-11T06:16:12;61.17;;;29.40;;
7477;SDS011;3780;42.424;25.636;2024-01-11T06:18:37;59.72;;;28.48;;
7477;SDS011;3780;42.424;25.636;2024-01-11T06:21:02;74.03;;;33.90;;
7477;SDS011;3780;42.424;25.636;2024-01-11T06:23:28;73.18;;;32.92;;
7477;SDS011;3780;42.424;25.636;2024-01-11T06:25:53;59.45;;;31.58;;
7477;SDS011;3780;42.424;25.636;2024-01-11T06:28:18;75.13;;;34.90;;
7477;SDS011;3780;42.424;25.636;2024-01-11T06:30:43;69.13;;;32.65;;
7477;SDS011;3780;42.424;25.636;2024-01-11T06:33:09;72.53;;;35.25;;
7477;SDS011;3780;42.424;25.636;2024-01-11T06:35:34;75.75;;;37.80;;
7477;SDS011;3780;42.424;25.636;2024-01-11T06:37:59;84.00;;;36.58;;
7477;SDS011;3780;42.424;25.636;2024-01-11T06:40:25;82.18;;;39.15;;
7477;SDS011;3780;42.424;25.636;2024-01-11T06:42:50;78.43;;;37.42;;
7477;SDS011;3780;42.424;25.636;2024-01-11T06:45:15;76.97;;;37.05;;
7477;SDS011;3780;42.424;25.636;2024-01-11T06:47:40;82.50;;;36.47;;
7477;SDS011;3780;42.424;25.636;2024-01-11T06:50:06;79.00;;;39.80;;
7477;SDS011;3780;42.424;25.636;2024-01-11T06:52:31;85.68;;;39.28;;
7477;SDS011;3780;42.424;25.636;2024-01-11T06:54:57;70.72;;;37.15;;
7477;SDS011;3780;42.424;25.636;2024-01-11T06:57:22;71.40;;;36.30;;
7477;SDS011;3780;42.424;25.636;2024-01-11T06:59:47;62.25;;;33.72;;
7477;SDS011;3780;42.424;25.636;2024-01-11T07:02:13;64.40;;;33.30;;
7477;SDS011;3780;42.424;25.636;2024-01-11T07:04:43;75.20;;;35.60;;
7477;SDS011;3780;42.424;25.636;2024-01-11T07:07:08;66.43;;;37.08;;
7477;SDS011;3780;42.424;25.636;2024-01-11T07:09:34;72.95;;;39.95;;
7477;SDS011;3780;42.424;25.636;2024-01-11T07:11:59;83.32;;;38.95;;
7477;SDS011;3780;42.424;25.636;2024-01-11T07:14:24;72.70;;;38.53;;
7477;SDS011;3780;42.424;25.636;2024-01-11T07:16:49;101.60;;;42.35;;
7477;SDS011;3780;42.424;25.636;2024-01-11T07:19:15;109.57;;;44.10;;
7477;SDS011;3780;42.424;25.636;2024-01-11T07:21:40;85.82;;;35.95;;
7477;SDS011;3780;42.424;25.636;2024-01-11T07:24:05;76.75;;;35.35;;
7477;SDS011;3780;42.424;25.636;2024-01-11T07:26:31;87.60;;;40.28;;
7477;SDS011;3780;42.424;25.636;2024-01-11T07:28:56;104.25;;;42.20;;
7477;SDS011;3780;42.424;25.636;2024-01-11T07:31:21;123.00;;;46.03;;
7477;SDS011;3780;42.424;25.636;2024-01-11T07:33:47;114.63;;;46.15;;
7477;SDS011;3780;42.424;25.636;2024-01-11T07:36:12;115.97;;;47.03;;
7477;SDS011;3780;42.424;25.636;2024-01-11T07:38:37;100.45;;;40.17;;
7477;SDS011;3780;42.424;25.636;2024-01-11T07:41:03;77.85;;;34.80;;
7477;SDS011;3780;42.424;25.636;2024-01-11T07:43:28;88.38;;;36.13;;
7477;SDS011;3780;42.424;25.636;2024-01-11T07:45:54;112.95;;;38.55;;
7477;SDS011;3780;42.424;25.636;2024-01-11T07:48:19;102.20;;;36.90;;
7477;SDS011;3780;42.424;25.636;2024-01-11T07:50:44;97.45;;;37.08;;
7477;SDS011;3780;42.424;25.636;2024-01-11T07:53:10;83.75;;;32.13;;
7477;SDS011;3780;42.424;25.636;2024-01-11T07:55:36;71.68;;;26.67;;
7477;SDS011;3780;42.424;25.636;2024-01-11T07:58:02;69.75;;;28.73;;
7477;SDS011;3780;42.424;25.636;2024-01-11T08:00:28;64.22;;;26.90;;
7477;SDS011;3780;42.424;25.636;2024-01-11T08:02:53;51.92;;;27.23;;
7477;SDS011;3780;42.424;25.636;2024-01-11T08:05:19;56.08;;;26.90;;
7477;SDS011;3780;42.424;25.636;2024-01-11T08:07:44;49.30;;;27.30;;
7477;SDS011;3780;42.424;25.636;2024-01-11T08:10:10;60.13;;;32.20;;
7477;SDS011;3780;42.424;25.636;2024-01-11T08:12:35;51.13;;;29.70;;
7477;SDS011;3780;42.424;25.636;2024-01-11T08:15:01;59.33;;;28.85;;
7477;SDS011;3780;42.424;25.636;2024-01-11T08:17:26;49.42;;;27.52;;
7477;SDS011;3780;42.424;25.636;2024-01-11T08:19:51;59.28;;;26.45;;
7477;SDS011;3780;42.424;25.636;2024-01-11T08:22:16;60.22;;;26.38;;
7477;SDS011;3780;42.424;25.636;2024-01-11T08:24:42;45.60;;;22.77;;
7477;SDS011;3780;42.424;25.636;2024-01-11T08:27:07;56.25;;;25.00;;
7477;SDS011;3780;42.424;25.636;2024-01-11T08:29:32;47.47;;;22.60;;
7477;SDS011;3780;42.424;25.636;2024-01-11T08:31:58;44.63;;;24.20;;
7477;SDS011;3780;42.424;25.636;2024-01-11T08:34:23;52.10;;;23.45;;
7477;SDS011;3780;42.424;25.636;2024-01-11T08:36:51;50.90;;;26.40;;
7477;SDS011;3780;42.424;25.636;2024-01-11T08:39:16;55.67;;;28.45;;
7477;SDS011;3780;42.424;25.636;2024-01-11T08:41:42;45.45;;;23.80;;
7477;SDS011;3780;42.424;25.636;2024-01-11T08:44:07;36.08;;;19.60;;
7477;SDS011;3780;42.424;25.636;2024-01-11T08:46:33;35.13;;;20.20;;
7477;SDS011;3780;42.424;25.636;2024-01-11T08:48:59;39.53;;;20.55;;
7477;SDS011;3780;42.424;25.636;2024-01-11T08:51:24;44.08;;;23.08;;
7477;SDS011;3780;42.424;25.636;2024-01-11T08:53:50;34.97;;;20.42;;
7477;SDS011;3780;42.424;25.636;2024-01-11T08:56:15;48.60;;;22.65;;
7477;SDS011;3780;42.424;25.636;2024-01-11T08:58:44;47.60;;;21.98;;
7477;SDS011;3780;42.424;25.636;2024-01-11T09:01:09;47.50;;;22.08;;
7477;SDS011;3780;42.424;25.636;2024-01-11T09:03:35;40.72;;;19.98;;
7477;SDS011;3780;42.424;25.636;2024-01-11T09:06:01;46.83;;;23.40;;
7477;SDS011;3780;42.424;25.636;2024-01-11T09:08:26;45.97;;;22.00;;
7477;SDS011;3780;42.424;25.636;2024-01-11T09:10:51;46.88;;;22.05;;
7477;SDS011;3780;42.424;25.636;2024-01-11T09:13:18;27.95;;;14.90;;
7477;SDS011;3780;42.424;25.636;2024-01-11T09:15:43;15.02;;;10.45;;
7477;SDS011;3780;42.424;25.636;2024-01-11T09:18:08;19.83;;;11.23;;
7477;SDS011;3780;42.424;25.636;2024-01-11T09:20:34;24.75;;;13.18;;
7477;SDS011;3780;42.424;25.636;2024-01-11T09:23:00;20.65;;;10.70;;
7477;SDS011;3780;42.424;25.636;2024-01-11T09:25:28;21.80;;;10.90;;
7477;SDS011;3780;42.424;25.636;2024-01-11T09:27:53;19.98;;;11.63;;
7477;SDS011;3780;42.424;25.636;2024-01-11T09:30:19;15.70;;;10.55;;
7477;SDS011;3780;42.424;25.636;2024-01-11T09:32:44;26.08;;;11.90;;
7477;SDS011;3780;42.424;25.636;2024-01-11T09:35:09;33.95;;;17.70;;
7477;SDS011;3780;42.424;25.636;2024-01-11T09:37:35;28.38;;;16.23;;
7477;SDS011;3780;42.424;25.636;2024-01-11T09:40:01;28.25;;;13.48;;
7477;SDS011;3780;42.424;25.636;2024-01-11T09:42:26;23.08;;;13.95;;
7477;SDS011;3780;42.424;25.636;2024-01-11T09:44:53;14.95;;;10.95;;
7477;SDS011;3780;42.424;25.636;2024-01-11T09:47:19;18.13;;;12.55;;
7477;SDS011;3780;42.424;25.636;2024-01-11T09:49:46;18.08;;;11.40;;
7477;SDS011;3780;42.424;25.636;2024-01-11T09:52:12;17.98;;;11.00;;
7477;SDS011;3780;42.424;25.636;2024-01-11T09:54:39;20.10;;;11.15;;
7477;SDS011;3780;42.424;25.636;2024-01-11T09:57:05;15.77;;;11.13;;
7477;SDS011;3780;42.424;25.636;2024-01-11T09:59:32;18.00;;;10.73;;
7477;SDS011;3780;42.424;25.636;2024-01-11T10:01:57;16.65;;;10.38;;
7477;SDS011;3780;42.424;25.636;2024-01-11T10:04:23;16.85;;;10.70;;
7477;SDS011;3780;42.424;25.636;2024-01-11T10:06:49;14.93;;;10.82;;
7477;SDS011;3780;42.424;25.636;2024-01-11T10:09:16;20.52;;;11.65;;
7477;SDS011;3780;42.424;25.636;2024-01-11T10:11:41;14.68;;;10.02;;
7477;SDS011;3780;42.424;25.636;2024-01-11T10:14:07;15.60;;;10.05;;
7477;SDS011;3780;42.424;25.636;2024-01-11T10:16:33;14.68;;;9.98;;
7477;SDS011;3780;42.424;25.636;2024-01-11T10:18:58;14.80;;;11.13;;
7477;SDS011;3780;42.424;25.636;2024-01-11T10:21:24;14.40;;;10.80;;
7477;SDS011;3780;42.424;25.636;2024-01-11T10:23:49;16.15;;;11.65;;
7477;SDS011;3780;42.424;25.636;2024-01-11T10:26:15;17.13;;;10.32;;
7477;SDS011;3780;42.424;25.636;2024-01-11T10:28:43;11.43;;;8.90;;
7477;SDS011;3780;42.424;25.636;2024-01-11T10:31:09;15.43;;;10.32;;
7477;SDS011;3780;42.424;25.636;2024-01-11T10:33:34;23.40;;;10.95;;
7477;SDS011;3780;42.424;25.636;2024-01-11T10:36:00;15.85;;;10.05;;
7477;SDS011;3780;42.424;25.636;2024-01-11T10:38:26;14.48;;;9.60;;
7477;SDS011;3780;42.424;25.636;2024-01-11T10:40:51;19.30;;;9.88;;
7477;SDS011;3780;42.424;25.636;2024-01-11T10:43:19;15.35;;;8.60;;
7477;SDS011;3780;42.424;25.636;2024-01-11T10:45:44;15.77;;;9.75;;
7477;SDS011;3780;42.424;25.636;2024-01-11T10:48:13;20.30;;;10.82;;
7477;SDS011;3780;42.424;25.636;2024-01-11T10:50:41;14.50;;;10.15;;
7477;SDS011;3780;42.424;25.636;2024-01-11T10:55:42;18.05;;;10.40;;
7477;SDS011;3780;42.424;25.636;2024-01-11T10:58:08;17.38;;;10.18;;
7477;SDS011;3780;42.424;25.636;2024-01-11T11:00:35;21.77;;;10.52;;
7477;SDS011;3780;42.424;25.636;2024-01-11T11:03:00;14.48;;;9.77;;
7477;SDS011;3780;42.424;25.636;2024-01-11T11:05:28;20.23;;;9.40;;
7477;SDS011;3780;42.424;25.636;2024-01-11T11:07:54;14.02;;;9.23;;
7477;SDS011;3780;42.424;25.636;2024-01-11T11:10:21;13.75;;;8.93;;
7477;SDS011;3780;42.424;25.636;2024-01-11T11:12:47;13.63;;;9.70;;
7477;SDS011;3780;42.424;25.636;2024-01-11T11:15:13;13.20;;;9.00;;
7477;SDS011;3780;42.424;25.636;2024-01-11T11:17:39;11.07;;;8.57;;
7477;SDS011;3780;42.424;25.636;2024-01-11T11:20:06;11.60;;;9.10;;
7477;SDS011;3780;42.424;25.636;2024-01-11T11:22:36;16.00;;;10.15;;
7477;SDS011;3780;42.424;25.636;2024-01-11T11:25:06;11.50;;;9.40;;
7477;SDS011;3780;42.424;25.636;2024-01-11T11:27:33;18.30;;;10.60;;
7477;SDS011;3780;42.424;25.636;2024-01-11T11:29:58;14.57;;;9.82;;
7477;SDS011;3780;42.424;25.636;2024-01-11T11:32:42;12.52;;;10.25;;
7477;SDS011;3780;42.424;25.636;2024-01-11T11:35:08;17.33;;;10.77;;
7477;SDS011;3780;42.424;25.636;2024-01-11T11:37:35;18.92;;;10.57;;
7477;SDS011;3780;42.424;25.636;2024-01-11T11:40:01;17.40;;;11.38;;
7477;SDS011;3780;42.424;25.636;2024-01-11T11:42:27;22.35;;;11.98;;
7477;SDS011;3780;42.424;25.636;2024-01-11T11:44:55;17.58;;;13.35;;
7477;SDS011;3780;42.424;25.636;2024-01-11T11:47:23;14.60;;;11.80;;
7477;SDS011;3780;42.424;25.636;2024-01-11T11:52:30;15.18;;;11.45;;
7477;SDS011;3780;42.424;25.636;2024-01-11T11:54:57;15.27;;;12.02;;
7477;SDS011;3780;42.424;25.636;2024-01-11T11:57:23;19.67;;;15.93;;
7477;SDS011;3780;42.424;25.636;2024-01-11T11:59:49;15.77;;;12.77;;
7477;SDS011;3780;42.424;25.636;2024-01-11T12:02:16;15.18;;;12.57;;
7477;SDS011;3780;42.424;25.636;2024-01-11T12:04:46;14.50;;;11.10;;
7477;SDS011;3780;42.424;25.636;2024-01-11T12:07:11;16.10;;;12.45;;
7477;SDS011;3780;42.424;25.636;2024-01-11T12:09:36;22.80;;;12.60;;
7477;SDS011;3780;42.424;25.636;2024-01-11T12:12:02;16.48;;;12.27;;
7477;SDS011;3780;42.424;25.636;2024-01-11T12:14:28;18.33;;;13.00;;
7477;SDS011;3780;42.424;25.636;2024-01-11T12:16:57;17.23;;;13.35;;
7477;SDS011;3780;42.424;25.636;2024-01-11T12:19:23;17.05;;;13.05;;
7477;SDS011;3780;42.424;25.636;2024-01-11T12:21:49;17.20;;;13.07;;
7477;SDS011;3780;42.424;25.636;2024-01-11T12:24:15;16.65;;;12.80;;
7477;SDS011;3780;42.424;25.636;2024-01-11T12:26:40;24.92;;;13.25;;
7477;SDS011;3780;42.424;25.636;2024-01-11T12:29:07;18.88;;;12.20;;
7477;SDS011;3780;42.424;25.636;2024-01-11T12:31:34;14.82;;;11.90;;
7477;SDS011;3780;42.424;25.636;2024-01-11T12:34:00;16.08;;;12.55;;
7477;SDS011;3780;42.424;25.636;2024-01-11T12:36:25;20.58;;;12.70;;
7477;SDS011;3780;42.424;25.636;2024-01-11T12:38:51;23.02;;;13.05;;
7477;SDS011;3780;42.424;25.636;2024-01-11T12:41:17;17.05;;;12.77;;
7477;SDS011;3780;42.424;25.636;2024-01-11T12:43:42;16.77;;;12.20;;
7477;SDS011;3780;42.424;25.636;2024-01-11T12:46:07;21.85;;;13.77;;
7477;SDS011;3780;42.424;25.636;2024-01-11T12:48:33;17.50;;;12.98;;
7477;SDS011;3780;42.424;25.636;2024-01-11T12:50:58;18.58;;;12.90;;
7477;SDS011;3780;42.424;25.636;2024-01-11T12:53:24;23.48;;;13.65;;
7477;SDS011;3780;42.424;25.636;2024-01-11T12:56:01;24.95;;;14.18;;
7477;SDS011;3780;42.424;25.636;2024-01-11T12:58:27;24.48;;;14.35;;
7477;SDS011;3780;42.424;25.636;2024-01-11T13:00:53;18.77;;;14.13;;
7477;SDS011;3780;42.424;25.636;2024-01-11T13:03:19;23.13;;;16.48;;
7477;SDS011;3780;42.424;25.636;2024-01-11T13:05:45;22.50;;;13.93;;
7477;SDS011;3780;42.424;25.636;2024-01-11T13:08:10;16.17;;;11.80;;
7477;SDS011;3780;42.424;25.636;2024-01-11T13:10:36;16.33;;;11.88;;
7477;SDS011;3780;42.424;25.636;2024-01-11T13:13:02;16.15;;;11.13;;
7477;SDS011;3780;42.424;25.636;2024-01-11T13:15:28;20.48;;;12.05;;
7477;SDS011;3780;42.424;25.636;2024-01-11T13:17:57;15.60;;;10.13;;
7477;SDS011;3780;42.424;25.636;2024-01-11T13:20:22;13.73;;;9.27;;
7477;SDS011;3780;42.424;25.636;2024-01-11T13:22:47;11.45;;;9.00;;
7477;SDS011;3780;42.424;25.636;2024-01-11T13:25:13;12.30;;;9.60;;
7477;SDS011;3780;42.424;25.636;2024-01-11T13:27:38;7.70;;;5.78;;
7477;SDS011;3780;42.424;25.636;2024-01-11T13:30:04;7.57;;;4.95;;
7477;SDS011;3780;42.424;25.636;2024-01-11T13:32:29;15.85;;;9.82;;
7477;SDS011;3780;42.424;25.636;2024-01-11T13:34:55;14.40;;;9.63;;
7477;SDS011;3780;42.424;25.636;2024-01-11T13:37:20;16.50;;;10.75;;
7477;SDS011;3780;42.424;25.636;2024-01-11T13:39:45;19.98;;;11.20;;
7477;SDS011;3780;42.424;25.636;2024-01-11T13:42:10;26.02;;;9.90;;
7477;SDS011;3780;42.424;25.636;2024-01-11T13:44:36;12.90;;;7.13;;
7477;SDS011;3780;42.424;25.636;2024-01-11T13:47:01;15.00;;;7.57;;
7477;SDS011;3780;42.424;25.636;2024-01-11T13:49:26;10.43;;;5.35;;
7477;SDS011;3780;42.424;25.636;2024-01-11T13:51:52;8.55;;;6.22;;
7477;SDS011;3780;42.424;25.636;2024-01-11T13:54:17;9.73;;;5.65;;
7477;SDS011;3780;42.424;25.636;2024-01-11T13:56:42;9.23;;;5.38;;
7477;SDS011;3780;42.424;25.636;2024-01-11T13:59:08;9.65;;;6.22;;
7477;SDS011;3780;42.424;25.636;2024-01-11T14:01:33;10.52;;;5.72;;
7477;SDS011;3780;42.424;25.636;2024-01-11T14:03:59;9.70;;;5.97;;
7477;SDS011;3780;42.424;25.636;2024-01-11T14:06:24;9.50;;;6.05;;
7477;SDS011;3780;42.424;25.636;2024-01-11T14:08:49;9.93;;;6.28;;
7477;SDS011;3780;42.424;25.636;2024-01-11T14:11:15;10.73;;;6.20;;
7477;SDS011;3780;42.424;25.636;2024-01-11T14:13:40;9.20;;;6.20;;
7477;SDS011;3780;42.424;25.636;2024-01-11T14:16:05;10.75;;;7.45;;
7477;SDS011;3780;42.424;25.636;2024-01-11T14:18:31;13.32;;;6.47;;
7477;SDS011;3780;42.424;25.636;2024-01-11T14:20:56;14.48;;;7.00;;
7477;SDS011;3780;42.424;25.636;2024-01-11T14:23:21;14.52;;;6.82;;
7477;SDS011;3780;42.424;25.636;2024-01-11T14:25:46;18.55;;;5.90;;
7477;SDS011;3780;42.424;25.636;2024-01-11T14:28:13;9.10;;;6.15;;
7477;SDS011;3780;42.424;25.636;2024-01-11T14:30:38;8.90;;;6.13;;
7477;SDS011;3780;42.424;25.636;2024-01-11T14:33:04;10.18;;;6.60;;
7477;SDS011;3780;42.424;25.636;2024-01-11T14:35:29;9.10;;;6.05;;